Time;durP1;ratioP1;P1;durP2;ratioP2;P2;SDS_P1;SDS_P2;PMS_P1;PMS_P2;Temp;Humidity;BMP_temperature;BMP_pressure;BME280_temperature;BME280_humidity;BME280_pressure;Samples;Min_cycle;Max_cycle;Signal;HPM_P1;HPM_P2
2023/05/08 00:00:50;;;;;;;11.20;8.93;;;14.40;99.90;;;;;;5003454;28;20458;-66
2023/05/08 00:03:16;;;;;;;9.17;7.87;;;14.40;99.90;;;;;;4991874;28;20501;-66
2023/05/08 00:05:44;;;;;;;9.50;7.83;;;14.40;99.90;;;;;;5006583;28;20852;-66
2023/05/08 00:08:11;;;;;;;9.03;8.00;;;14.40;99.90;;;;;;5011345;28;20816;-67
2023/05/08 00:10:37;;;;;;;9.43;8.43;;;14.40;99.90;;;;;;4996851;28;20512;-66
2023/05/08 00:13:04;;;;;;;8.17;7.37;;;14.40;99.90;;;;;;4992943;28;20470;-67
2023/05/08 00:15:32;;;;;;;9.57;8.37;;;14.40;99.90;;;;;;5005767;28;20497;-66
2023/05/08 00:17:59;;;;;;;11.43;9.10;;;14.40;99.90;;;;;;4991502;28;20525;-66
2023/05/08 00:20:26;;;;;;;12.27;8.90;;;14.40;99.90;;;;;;4999624;28;20890;-66
2023/05/08 00:22:53;;;;;;;11.13;9.00;;;14.40;99.90;;;;;;4990904;28;20469;-67
2023/05/08 00:25:20;;;;;;;10.43;8.70;;;14.40;99.90;;;;;;4991792;28;20465;-67
2023/05/08 00:27:46;;;;;;;10.80;9.03;;;14.40;99.90;;;;;;4998614;28;20473;-66
2023/05/08 00:30:13;;;;;;;11.00;9.37;;;14.40;99.90;;;;;;5010092;28;20481;-66
2023/05/08 00:32:41;;;;;;;11.83;8.47;;;14.40;99.90;;;;;;4996252;28;20458;-66
2023/05/08 00:35:08;;;;;;;9.60;7.63;;;14.40;99.90;;;;;;5008703;28;20468;-66
2023/05/08 00:37:36;;;;;;;11.80;9.03;;;14.40;99.90;;;;;;5010421;28;20531;-67
2023/05/08 00:40:03;;;;;;;11.50;8.50;;;14.40;99.90;;;;;;5010783;28;20457;-66
2023/05/08 00:42:30;;;;;;;9.47;7.70;;;14.30;99.90;;;;;;5010525;28;20496;-67
2023/05/08 00:44:57;;;;;;;11.60;8.90;;;14.30;99.90;;;;;;5009650;28;20468;-67
2023/05/08 00:47:23;;;;;;;8.90;7.57;;;14.30;99.90;;;;;;5010681;28;20496;-66
2023/05/08 00:49:52;;;;;;;8.50;7.50;;;14.30;99.90;;;;;;5010008;28;20477;-66
2023/05/08 00:52:19;;;;;;;11.50;9.53;;;14.30;99.90;;;;;;5009747;28;20457;-67
2023/05/08 00:54:46;;;;;;;11.13;9.90;;;14.30;99.90;;;;;;5009806;28;20469;-66
2023/05/08 00:57:15;;;;;;;12.70;9.40;;;14.30;99.90;;;;;;5009953;28;20922;-67
2023/05/08 00:59:44;;;;;;;10.20;8.60;;;14.20;99.90;;;;;;5009789;28;20461;-67
2023/05/08 01:02:11;;;;;;;9.70;8.67;;;14.30;99.90;;;;;;5010439;28;20510;-67
2023/05/08 01:04:38;;;;;;;11.90;8.90;;;14.30;99.90;;;;;;5004311;28;20458;-67
2023/05/08 01:07:06;;;;;;;9.80;7.63;;;14.30;99.90;;;;;;4999395;28;20473;-67
2023/05/08 01:09:32;;;;;;;8.47;7.47;;;14.30;99.90;;;;;;5009646;28;20504;-67
2023/05/08 01:14:47;;;;;;;11.40;8.40;;;14.30;99.90;;;;;;4967351;28;20551;-69
2023/05/08 01:17:23;;;;;;;11.70;8.67;;;14.40;99.90;;;;;;4989590;28;20478;-69
2023/05/08 01:19:58;;;;;;;10.07;7.87;;;14.40;99.90;;;;;;4990913;28;20485;-69
2023/05/08 01:22:41;;;;;;;9.53;7.43;;;14.40;99.90;;;;;;4991216;28;20462;-68
2023/05/08 01:25:28;;;;;;;10.53;8.20;;;14.40;99.90;;;;;;4990445;28;20470;-68
2023/05/08 01:28:21;;;;;;;11.70;9.50;;;14.40;99.90;;;;;;4990936;28;20457;-69
2023/05/08 01:31:08;;;;;;;11.23;8.90;;;14.40;99.90;;;;;;4990750;28;20493;-68
2023/05/08 01:33:46;;;;;;;9.67;7.67;;;14.40;99.90;;;;;;4990680;28;20466;-69
2023/05/08 01:36:20;;;;;;;9.33;7.73;;;14.40;99.90;;;;;;4990286;28;20486;-68
2023/05/08 01:38:55;;;;;;;11.57;9.40;;;14.40;99.90;;;;;;4990738;28;20473;-68
2023/05/08 01:41:27;;;;;;;12.67;8.93;;;14.40;99.90;;;;;;4990390;28;20469;-68
2023/05/08 01:44:02;;;;;;;9.90;7.93;;;14.40;99.90;;;;;;4990665;28;20494;-69
2023/05/08 01:46:32;;;;;;;9.70;7.90;;;14.40;99.90;;;;;;4992543;28;20580;-68
2023/05/08 01:49:06;;;;;;;9.77;8.30;;;14.40;99.90;;;;;;4991880;28;20841;-68
2023/05/08 01:51:38;;;;;;;10.60;8.03;;;14.40;99.90;;;;;;4991724;28;20462;-69
2023/05/08 01:54:10;;;;;;;10.23;8.60;;;14.40;99.90;;;;;;4991170;28;20462;-68
2023/05/08 01:56:40;;;;;;;9.93;7.67;;;14.40;99.90;;;;;;4991905;28;20482;-69
2023/05/08 01:59:08;;;;;;;16.07;9.60;;;14.40;99.90;;;;;;4990962;28;20462;-68
2023/05/08 02:01:35;;;;;;;9.50;8.17;;;14.40;99.90;;;;;;4991512;28;20501;-69
2023/05/08 02:04:05;;;;;;;10.93;8.47;;;14.40;99.90;;;;;;4990701;28;20477;-68
2023/05/08 02:06:33;;;;;;;11.53;7.73;;;14.40;99.90;;;;;;4994608;28;20482;-69
2023/05/08 02:09:00;;;;;;;10.50;8.43;;;14.30;99.90;;;;;;4994945;28;20458;-68
2023/05/08 02:11:28;;;;;;;9.93;7.67;;;14.30;99.90;;;;;;4964133;28;20468;-69
2023/05/08 02:14:00;;;;;;;9.53;7.17;;;14.30;99.90;;;;;;4962749;28;20478;-68
2023/05/08 02:16:28;;;;;;;9.77;8.03;;;14.30;99.90;;;;;;4994806;28;20484;-69
2023/05/08 02:18:57;;;;;;;11.87;9.53;;;14.30;99.90;;;;;;4994335;28;20473;-68
2023/05/08 02:21:26;;;;;;;11.13;8.50;;;14.20;99.90;;;;;;4994211;28;20485;-69
2023/05/08 02:23:56;;;;;;;10.90;8.63;;;14.20;99.90;;;;;;4994328;28;20485;-68
2023/05/08 02:26:24;;;;;;;10.40;8.60;;;14.20;99.90;;;;;;4995420;28;20577;-69
2023/05/08 02:28:52;;;;;;;9.47;7.97;;;14.20;99.90;;;;;;4996064;28;20461;-69
2023/05/08 02:31:20;;;;;;;10.00;8.27;;;14.20;99.90;;;;;;4994949;28;20481;-69
2023/05/08 02:33:49;;;;;;;10.10;8.60;;;14.10;99.90;;;;;;4995036;28;20472;-69
2023/05/08 02:36:18;;;;;;;8.43;6.93;;;14.20;99.90;;;;;;4994518;28;20478;-68
2023/05/08 02:38:50;;;;;;;8.17;7.33;;;14.10;99.90;;;;;;4994903;28;20875;-68
2023/05/08 02:41:20;;;;;;;9.50;8.20;;;14.20;99.90;;;;;;4994341;28;20454;-68
2023/05/08 02:43:47;;;;;;;9.50;7.57;;;14.20;99.90;;;;;;4994374;28;20512;-68
2023/05/08 02:46:18;;;;;;;10.37;7.73;;;14.20;99.90;;;;;;4994014;28;20489;-68
2023/05/08 02:48:52;;;;;;;12.17;9.97;;;14.10;99.90;;;;;;4994013;28;20468;-69
2023/05/08 02:51:26;;;;;;;11.83;9.00;;;14.10;99.90;;;;;;4994084;28;20484;-69
2023/05/08 02:53:58;;;;;;;9.80;7.70;;;14.10;99.90;;;;;;4993978;28;20468;-69
2023/05/08 02:56:35;;;;;;;11.57;8.10;;;14.10;99.90;;;;;;4994182;28;20513;-69
2023/05/08 02:59:13;;;;;;;11.37;8.27;;;14.20;99.90;;;;;;4993923;28;20466;-68
2023/05/08 03:01:47;;;;;;;13.93;7.70;;;14.20;99.90;;;;;;4993901;28;20528;-69
2023/05/08 03:04:25;;;;;;;11.93;8.53;;;14.20;99.90;;;;;;4993239;28;20462;-69
2023/05/08 03:06:54;;;;;;;11.27;8.47;;;14.20;99.90;;;;;;4993492;28;20580;-69
2023/05/08 03:09:25;;;;;;;11.63;7.80;;;14.20;99.90;;;;;;4993873;28;20824;-68
2023/05/08 03:12:01;;;;;;;11.37;8.27;;;14.20;99.90;;;;;;4994619;28;20493;-69
2023/05/08 03:14:30;;;;;;;8.33;7.37;;;14.20;99.90;;;;;;4994486;28;20469;-69
2023/05/08 03:17:00;;;;;;;10.30;8.33;;;14.20;99.90;;;;;;4992813;28;20907;-68
2023/05/08 03:19:31;;;;;;;9.73;8.43;;;14.20;99.90;;;;;;4992915;28;20816;-69
2023/05/08 03:21:59;;;;;;;9.70;7.33;;;14.20;99.90;;;;;;4993000;28;20462;-68
2023/05/08 03:24:29;;;;;;;10.20;8.30;;;14.20;99.90;;;;;;4992743;28;20462;-69
2023/05/08 03:26:56;;;;;;;12.43;8.97;;;14.20;99.90;;;;;;4992919;28;20504;-68
2023/05/08 03:29:24;;;;;;;10.50;7.50;;;14.20;99.90;;;;;;4992529;28;20466;-68
2023/05/08 03:31:52;;;;;;;10.63;8.30;;;14.20;99.90;;;;;;4984942;28;20463;-69
2023/05/08 03:34:20;;;;;;;13.40;8.80;;;14.20;99.90;;;;;;4973341;28;20467;-70
2023/05/08 03:36:47;;;;;;;13.47;9.60;;;14.20;99.90;;;;;;4962928;28;20488;-69
2023/05/08 03:39:14;;;;;;;12.30;9.37;;;14.10;99.90;;;;;;4966157;28;20985;-69
2023/05/08 03:41:42;;;;;;;10.13;8.90;;;14.10;99.90;;;;;;4971160;28;20466;-69
2023/05/08 03:44:10;;;;;;;11.80;9.80;;;14.10;99.90;;;;;;4965460;28;20474;-69
2023/05/08 03:46:38;;;;;;;12.40;9.00;;;14.10;99.90;;;;;;5176448;22;20869;-69
2023/05/08 03:49:08;;;;;;;8.50;7.57;;;14.10;99.90;;;;;;5040951;28;20452;-68
2023/05/08 03:51:38;;;;;;;10.37;8.60;;;14.10;99.90;;;;;;5045951;28;20507;-69
2023/05/08 03:54:05;;;;;;;12.90;8.40;;;14.10;99.90;;;;;;5040727;28;20514;-68
2023/05/08 03:56:33;;;;;;;11.57;9.37;;;14.20;99.90;;;;;;5031632;28;20480;-69
2023/05/08 03:59:10;;;;;;;9.67;8.00;;;14.10;99.90;;;;;;5029600;28;20456;-68
2023/05/08 04:01:40;;;;;;;8.70;7.27;;;14.10;99.90;;;;;;5031002;28;20460;-67
2023/05/08 04:04:11;;;;;;;11.70;9.20;;;14.10;99.90;;;;;;5024078;28;20470;-68
2023/05/08 04:06:46;;;;;;;9.50;7.93;;;14.10;99.90;;;;;;5023881;28;20484;-69
2023/05/08 04:09:18;;;;;;;11.17;9.43;;;14.10;99.90;;;;;;5023836;28;20463;-68
2023/05/08 04:11:56;;;;;;;11.48;9.50;;;14.10;99.90;;;;;;5025073;28;20822;-69
2023/05/08 04:14:27;;;;;;;11.57;8.60;;;14.00;99.90;;;;;;5027950;28;20197;-69
2023/05/08 04:17:00;;;;;;;11.07;8.70;;;14.00;99.90;;;;;;5022798;28;20488;-68
2023/05/08 04:19:29;;;;;;;11.90;9.10;;;14.00;99.90;;;;;;5023135;28;20456;-68
2023/05/08 04:22:01;;;;;;;14.37;10.20;;;14.00;99.90;;;;;;5028372;28;20826;-68
2023/05/08 04:24:30;;;;;;;11.17;8.67;;;14.00;99.90;;;;;;5028805;28;20470;-68
2023/05/08 04:26:57;;;;;;;12.97;9.53;;;14.10;99.90;;;;;;5038332;28;20490;-69
2023/05/08 04:29:26;;;;;;;12.87;9.50;;;14.10;99.90;;;;;;5051424;28;20466;-68
2023/05/08 04:31:53;;;;;;;12.13;10.47;;;14.10;99.90;;;;;;5049023;28;20479;-68
2023/05/08 04:34:20;;;;;;;11.37;9.03;;;14.10;99.90;;;;;;5050319;28;20459;-69
2023/05/08 04:36:47;;;;;;;13.90;10.40;;;14.10;99.90;;;;;;5049657;28;20490;-68
2023/05/08 04:39:14;;;;;;;11.70;9.53;;;14.10;99.90;;;;;;5050389;28;20490;-69
2023/05/08 04:41:40;;;;;;;13.33;9.70;;;14.20;99.90;;;;;;5051042;28;21175;-68
2023/05/08 04:44:07;;;;;;;12.87;10.20;;;14.20;99.90;;;;;;5051102;28;20834;-68
2023/05/08 04:46:35;;;;;;;9.77;8.40;;;14.20;99.90;;;;;;5053721;28;20487;-68
2023/05/08 04:49:02;;;;;;;13.50;10.23;;;14.20;99.90;;;;;;5053716;28;20984;-68
2023/05/08 04:51:30;;;;;;;13.00;9.93;;;14.20;99.90;;;;;;5034811;28;20488;-68
2023/05/08 04:53:57;;;;;;;13.23;10.33;;;14.30;99.90;;;;;;5028346;28;20460;-69
2023/05/08 04:56:25;;;;;;;11.40;9.67;;;14.30;99.90;;;;;;5032578;28;20472;-68
2023/05/08 04:58:52;;;;;;;13.47;9.30;;;14.40;99.90;;;;;;5033810;28;20464;-68
2023/05/08 05:01:19;;;;;;;13.47;10.20;;;14.40;99.90;;;;;;5032169;28;20453;-68
2023/05/08 05:03:47;;;;;;;11.90;9.70;;;14.40;99.90;;;;;;5031368;28;20460;-69
2023/05/08 05:06:13;;;;;;;14.43;9.93;;;14.40;99.90;;;;;;5031169;28;20534;-68
2023/05/08 05:08:40;;;;;;;10.87;8.33;;;14.40;99.90;;;;;;5031712;28;20958;-68
2023/05/08 05:11:07;;;;;;;10.87;9.27;;;14.40;99.90;;;;;;5030836;28;20487;-69
2023/05/08 05:13:34;;;;;;;12.10;9.63;;;14.50;99.90;;;;;;5030417;28;20958;-68
2023/05/08 05:16:00;;;;;;;12.90;9.90;;;14.50;99.90;;;;;;5030501;28;20480;-68
2023/05/08 05:18:27;;;;;;;13.10;9.70;;;14.50;99.90;;;;;;5030573;28;20472;-69
2023/05/08 05:20:57;;;;;;;11.77;9.00;;;14.50;99.90;;;;;;5030607;28;20522;-68
2023/05/08 05:23:24;;;;;;;9.73;7.90;;;14.50;99.90;;;;;;5048715;28;20462;-69
2023/05/08 05:25:51;;;;;;;10.50;8.80;;;14.50;99.90;;;;;;5050498;28;20569;-68
2023/05/08 05:28:18;;;;;;;11.73;8.20;;;14.50;99.90;;;;;;5050244;28;20467;-69
2023/05/08 05:30:46;;;;;;;12.40;9.10;;;14.50;99.90;;;;;;5050179;28;20482;-69
2023/05/08 05:33:15;;;;;;;9.90;8.33;;;14.50;99.90;;;;;;5049838;28;20467;-69
2023/05/08 05:35:42;;;;;;;10.00;7.73;;;14.50;99.90;;;;;;5047592;28;20510;-69
2023/05/08 05:38:10;;;;;;;9.07;8.13;;;14.40;99.90;;;;;;5031988;28;20897;-68
2023/05/08 05:40:37;;;;;;;10.03;7.87;;;14.50;99.90;;;;;;5034646;28;20456;-69
2023/05/08 05:43:03;;;;;;;10.80;8.77;;;14.50;99.90;;;;;;5034824;28;20460;-69
2023/05/08 05:45:31;;;;;;;12.50;9.27;;;14.50;99.90;;;;;;5034168;28;20492;-69
2023/05/08 05:47:57;;;;;;;10.67;8.17;;;14.60;99.90;;;;;;5027431;28;20469;-69
2023/05/08 05:50:25;;;;;;;9.23;7.20;;;14.60;99.90;;;;;;5030612;28;20460;-69
2023/05/08 05:52:52;;;;;;;10.03;8.67;;;14.60;99.90;;;;;;5032275;28;20517;-69
2023/05/08 05:55:20;;;;;;;10.30;8.40;;;14.70;99.90;;;;;;5032341;28;20492;-69
2023/05/08 05:57:47;;;;;;;10.57;8.93;;;14.70;99.90;;;;;;5035741;28;20464;-69
2023/05/08 06:00:15;;;;;;;17.60;9.20;;;14.70;99.90;;;;;;5029927;28;20460;-68
2023/05/08 06:02:42;;;;;;;11.70;9.73;;;14.80;99.90;;;;;;5052172;28;20459;-68
2023/05/08 06:05:10;;;;;;;11.60;8.63;;;14.80;99.90;;;;;;5051888;28;20470;-68
2023/05/08 06:07:37;;;;;;;11.40;8.80;;;14.80;99.90;;;;;;5051627;28;20455;-68
2023/05/08 06:10:04;;;;;;;11.47;8.50;;;14.90;99.90;;;;;;5051544;28;20494;-68
2023/05/08 06:12:32;;;;;;;10.50;9.07;;;14.90;99.90;;;;;;5039469;28;20481;-69
2023/05/08 06:14:58;;;;;;;10.70;8.63;;;15.00;99.90;;;;;;5032305;28;20464;-69
2023/05/08 06:17:25;;;;;;;8.37;7.37;;;15.00;99.90;;;;;;5027489;28;20490;-69
2023/05/08 06:19:55;;;;;;;8.93;7.47;;;15.10;99.90;;;;;;5018711;28;20560;-68
2023/05/08 06:22:23;;;;;;;11.70;7.93;;;15.10;99.90;;;;;;5017231;28;20668;-68
2023/05/08 06:24:52;;;;;;;8.83;7.93;;;15.20;99.90;;;;;;5021707;28;20462;-69
2023/05/08 06:27:19;;;;;;;9.33;7.10;;;15.20;99.90;;;;;;5023786;28;20480;-68
2023/05/08 06:29:49;;;;;;;8.70;7.20;;;15.20;99.90;;;;;;5031016;28;20456;-68
2023/05/08 06:32:16;;;;;;;7.03;6.10;;;15.20;99.90;;;;;;5030072;28;20511;-68
2023/05/08 06:34:43;;;;;;;8.80;6.87;;;15.20;99.90;;;;;;5030134;28;20833;-68
2023/05/08 06:37:09;;;;;;;8.30;6.73;;;15.20;99.90;;;;;;5032237;28;20508;-69
2023/05/08 06:39:36;;;;;;;8.77;7.10;;;15.20;99.90;;;;;;5050478;28;20456;-69
2023/05/08 06:42:03;;;;;;;8.60;7.10;;;15.20;99.90;;;;;;5044474;28;20483;-68
2023/05/08 06:44:30;;;;;;;9.17;7.23;;;15.20;99.90;;;;;;5049105;28;20463;-68
2023/05/08 06:46:58;;;;;;;9.30;8.10;;;15.20;99.90;;;;;;5051801;28;20487;-68
2023/05/08 06:49:25;;;;;;;9.40;7.40;;;15.20;99.90;;;;;;5040096;28;20517;-69
2023/05/08 06:51:52;;;;;;;9.87;7.77;;;15.20;99.90;;;;;;5045635;28;20479;-69
2023/05/08 06:54:18;;;;;;;8.73;7.83;;;15.20;99.90;;;;;;5053216;28;20470;-68
2023/05/08 06:56:45;;;;;;;8.43;7.37;;;15.20;99.90;;;;;;5054112;28;20479;-68
2023/05/08 06:59:12;;;;;;;9.10;7.40;;;15.20;99.90;;;;;;5046395;28;20461;-68
2023/05/08 07:01:38;;;;;;;8.93;7.90;;;15.20;99.90;;;;;;5034342;28;21184;-69
2023/05/08 07:04:06;;;;;;;8.27;6.97;;;15.30;99.90;;;;;;5033777;28;20869;-69
2023/05/08 07:06:33;;;;;;;9.27;7.63;;;15.30;99.90;;;;;;5036021;28;20480;-69
2023/05/08 07:09:00;;;;;;;8.40;6.50;;;15.30;99.90;;;;;;5047789;28;20464;-69
2023/05/08 07:11:27;;;;;;;13.50;6.90;;;15.40;99.90;;;;;;5042920;28;20481;-69
2023/05/08 07:13:54;;;;;;;9.07;8.10;;;15.40;99.90;;;;;;5030248;28;20495;-69
2023/05/08 07:16:21;;;;;;;11.40;8.00;;;15.50;99.90;;;;;;5037094;28;20575;-69
2023/05/08 07:18:48;;;;;;;8.90;7.30;;;15.50;99.90;;;;;;5043309;28;20460;-68
2023/05/08 07:21:17;;;;;;;8.23;7.27;;;15.60;99.90;;;;;;5055995;28;20514;-69
2023/05/08 07:23:44;;;;;;;9.10;8.20;;;15.60;99.90;;;;;;5026882;28;21034;-69
2023/05/08 07:26:11;;;;;;;7.97;7.17;;;15.60;99.90;;;;;;5051247;28;20553;-69
2023/05/08 07:28:38;;;;;;;8.60;7.53;;;15.70;99.90;;;;;;5041328;28;20717;-69
2023/05/08 07:31:05;;;;;;;8.20;7.30;;;15.70;99.90;;;;;;5033568;28;20579;-69
2023/05/08 07:33:33;;;;;;;9.73;7.50;;;15.80;99.90;;;;;;5036409;28;20526;-69
2023/05/08 07:36:01;;;;;;;9.37;7.57;;;15.90;99.90;;;;;;5054680;28;20480;-68
2023/05/08 07:38:29;;;;;;;17.27;9.50;;;16.00;99.90;;;;;;5027477;28;20558;-68
2023/05/08 07:40:58;;;;;;;8.23;7.43;;;16.10;99.90;;;;;;5034205;28;20462;-69
2023/05/08 07:43:25;;;;;;;8.30;7.50;;;16.20;99.90;;;;;;5034044;28;20460;-68
2023/05/08 07:45:53;;;;;;;9.07;7.60;;;16.30;99.90;;;;;;5041004;28;20602;-69
2023/05/08 07:48:20;;;;;;;8.33;7.53;;;16.40;99.90;;;;;;5022600;28;20465;-68
2023/05/08 07:50:49;;;;;;;8.10;6.40;;;16.40;99.90;;;;;;5026264;28;20528;-69
2023/05/08 07:53:17;;;;;;;8.23;7.43;;;16.40;99.90;;;;;;5024869;28;20530;-69
2023/05/08 07:55:46;;;;;;;8.40;7.53;;;16.40;99.90;;;;;;5025081;28;20546;-68
2023/05/08 07:58:13;;;;;;;8.57;7.27;;;16.50;99.90;;;;;;5033057;28;20464;-68
2023/05/08 08:00:40;;;;;;;7.67;6.80;;;16.40;99.90;;;;;;5031323;28;20467;-69
2023/05/08 08:03:08;;;;;;;7.93;7.13;;;16.40;99.90;;;;;;5028534;28;20952;-69
2023/05/08 08:05:35;;;;;;;7.60;6.77;;;16.30;99.90;;;;;;5038118;28;20484;-69
2023/05/08 08:08:02;;;;;;;8.30;7.40;;;16.10;99.90;;;;;;5034528;28;20759;-69
2023/05/08 08:10:30;;;;;;;7.83;6.87;;;16.00;99.90;;;;;;5032982;28;20603;-68
2023/05/08 08:13:00;;;;;;;7.90;7.10;;;15.90;99.90;;;;;;5033076;28;20623;-69
2023/05/08 08:15:27;;;;;;;8.30;7.40;;;15.80;99.90;;;;;;5031488;28;20464;-68
2023/05/08 08:17:56;;;;;;;7.47;6.67;;;15.60;99.90;;;;;;5051683;28;20523;-68
2023/05/08 08:20:25;;;;;;;6.80;6.07;;;15.60;99.90;;;;;;5043055;28;20468;-68
2023/05/08 08:22:52;;;;;;;5.60;5.10;;;15.50;99.90;;;;;;5050972;28;20487;-69
2023/05/08 08:27:47;;;;;;;5.30;4.80;;;15.30;99.90;;;;;;5009273;28;20485;-68
2023/05/08 08:30:15;;;;;;;5.57;5.07;;;15.20;99.90;;;;;;5010087;28;20485;-69
2023/05/08 08:32:42;;;;;;;5.70;5.20;;;15.20;99.90;;;;;;5010658;28;20485;-68
2023/05/08 08:35:12;;;;;;;5.70;5.20;;;15.20;99.90;;;;;;5012285;28;20461;-68
2023/05/08 08:37:39;;;;;;;5.33;4.83;;;15.10;99.90;;;;;;4992790;28;20466;-69
2023/05/08 08:40:07;;;;;;;6.20;5.60;;;15.00;99.90;;;;;;4990636;28;20466;-68
2023/05/08 08:42:37;;;;;;;5.13;4.63;;;15.00;99.90;;;;;;4989855;28;20458;-69
2023/05/08 08:45:05;;;;;;;5.80;5.30;;;14.90;99.90;;;;;;4971592;28;20822;-69
2023/05/08 08:47:37;;;;;;;5.07;4.40;;;15.00;99.90;;;;;;4971597;28;20866;-68
2023/05/08 08:50:06;;;;;;;5.47;4.97;;;14.90;99.90;;;;;;4976695;28;20470;-68
2023/05/08 08:52:41;;;;;;;5.50;5.00;;;15.00;99.90;;;;;;4988264;28;20569;-68
2023/05/08 08:55:12;;;;;;;5.53;4.37;;;14.90;99.90;;;;;;5085573;22;20478;-67
2023/05/08 08:57:46;;;;;;;5.10;4.70;;;14.90;99.90;;;;;;5030755;28;20499;-67
2023/05/08 09:00:14;;;;;;;4.77;4.30;;;14.90;99.90;;;;;;5030348;28;20467;-67
2023/05/08 09:02:42;;;;;;;4.90;4.40;;;14.90;99.90;;;;;;5030122;28;20463;-67
2023/05/08 09:05:10;;;;;;;4.50;4.10;;;14.90;99.90;;;;;;5030016;28;20457;-67
2023/05/08 09:07:38;;;;;;;6.93;4.30;;;15.00;99.90;;;;;;5030382;28;20488;-67
2023/05/08 09:10:06;;;;;;;5.53;4.27;;;15.00;99.90;;;;;;5030084;28;21013;-67
2023/05/08 09:12:33;;;;;;;5.70;4.60;;;15.00;99.90;;;;;;5029698;28;20570;-67
2023/05/08 09:15:00;;;;;;;5.10;4.27;;;15.00;99.90;;;;;;5029902;28;20464;-67
2023/05/08 09:17:26;;;;;;;8.53;3.83;;;15.00;99.90;;;;;;5029592;28;20491;-68
2023/05/08 09:19:55;;;;;;;4.40;3.90;;;15.00;99.90;;;;;;5030076;28;20465;-67
2023/05/08 09:22:23;;;;;;;5.00;4.50;;;15.00;99.90;;;;;;5045878;28;20542;-68
2023/05/08 09:24:57;;;;;;;5.40;4.90;;;15.10;99.90;;;;;;5040868;28;20840;-68
2023/05/08 09:27:25;;;;;;;5.00;4.40;;;15.10;99.90;;;;;;5049849;28;20486;-68
2023/05/08 09:30:03;;;;;;;6.67;4.80;;;15.20;99.90;;;;;;5050019;28;20463;-68
2023/05/08 09:32:30;;;;;;;5.43;4.20;;;15.20;99.90;;;;;;5049251;28;20923;-68
2023/05/08 09:34:59;;;;;;;6.17;4.80;;;15.20;99.90;;;;;;5049471;28;20526;-67
2023/05/08 09:37:27;;;;;;;5.27;4.70;;;15.30;99.90;;;;;;5033192;28;20492;-68
2023/05/08 09:39:53;;;;;;;6.23;5.17;;;15.40;99.90;;;;;;5029669;28;20465;-68
2023/05/08 09:42:22;;;;;;;5.60;4.80;;;15.40;99.90;;;;;;5029744;28;20460;-68
2023/05/08 09:44:50;;;;;;;5.37;4.30;;;15.40;99.90;;;;;;5029611;28;20563;-68
2023/05/08 09:47:20;;;;;;;4.10;3.70;;;15.40;99.90;;;;;;5029359;28;20492;-67
2023/05/08 09:49:58;;;;;;;3.17;2.97;;;15.50;99.90;;;;;;5029202;28;22246;-67
2023/05/08 09:52:25;;;;;;;3.83;3.50;;;15.60;99.90;;;;;;5029733;28;20484;-67
2023/05/08 09:54:59;;;;;;;4.00;3.70;;;15.70;99.90;;;;;;5029371;28;20947;-67
2023/05/08 09:57:26;;;;;;;5.60;3.00;;;15.80;99.90;;;;;;5029715;28;20532;-67
2023/05/08 10:00:02;;;;;;;3.97;3.67;;;15.90;99.90;;;;;;5029844;28;20944;-68
2023/05/08 10:02:28;;;;;;;3.93;3.60;;;16.00;99.90;;;;;;5028988;28;20921;-67
2023/05/08 10:04:56;;;;;;;3.77;3.47;;;16.20;99.90;;;;;;5029546;28;20468;-67
2023/05/08 10:07:30;;;;;;;4.33;3.93;;;16.20;99.90;;;;;;5029442;28;20563;-68
2023/05/08 10:10:01;;;;;;;3.93;3.57;;;16.30;99.90;;;;;;5021767;28;20660;-68
2023/05/08 10:12:29;;;;;;;4.00;3.70;;;16.50;99.90;;;;;;5029403;28;20479;-68
2023/05/08 10:14:56;;;;;;;4.40;4.00;;;16.60;99.90;;;;;;5029263;28;20460;-67
2023/05/08 10:17:27;;;;;;;4.30;3.73;;;16.80;99.90;;;;;;5029125;28;20542;-68
2023/05/08 10:19:59;;;;;;;4.03;3.43;;;16.80;99.90;;;;;;5032927;28;20485;-67
2023/05/08 10:22:27;;;;;;;4.03;3.30;;;16.80;99.90;;;;;;5033197;28;20872;-67
2023/05/08 10:24:57;;;;;;;3.47;3.17;;;16.70;99.90;;;;;;5029046;28;20464;-67
2023/05/08 10:27:35;;;;;;;3.80;2.93;;;16.80;99.90;;;;;;5032411;28;21082;-67
2023/05/08 10:30:04;;;;;;;3.37;3.00;;;16.90;99.90;;;;;;5033951;28;20460;-68
2023/05/08 10:32:37;;;;;;;3.90;3.40;;;17.00;99.90;;;;;;5033361;28;20487;-67
2023/05/08 10:35:08;;;;;;;3.73;3.40;;;17.00;99.90;;;;;;5033140;28;20495;-68
2023/05/08 10:37:36;;;;;;;4.03;3.17;;;16.90;99.90;;;;;;5033060;28;20484;-67
2023/05/08 10:40:05;;;;;;;2.80;2.47;;;17.00;99.90;;;;;;5032584;28;20471;-67
2023/05/08 10:42:34;;;;;;;3.53;3.10;;;17.00;99.90;;;;;;5032697;28;21009;-67
2023/05/08 10:45:01;;;;;;;4.13;3.73;;;17.00;99.90;;;;;;5032792;28;20559;-68
2023/05/08 10:47:33;;;;;;;3.93;3.17;;;17.00;99.90;;;;;;5032533;28;20857;-68
2023/05/08 10:50:05;;;;;;;3.77;3.47;;;17.00;99.90;;;;;;5025307;28;20468;-67
2023/05/08 10:52:37;;;;;;;4.03;3.23;;;17.10;99.90;;;;;;5032307;28;20475;-67
2023/05/08 10:55:19;;;;;;;3.83;3.43;;;17.10;99.90;;;;;;5036669;28;20483;-67
2023/05/08 10:58:06;;;;;;;4.67;3.30;;;17.20;99.90;;;;;;5052638;28;20487;-68
2023/05/08 11:00:53;;;;;;;2.93;2.73;;;17.30;99.90;;;;;;5043758;28;20495;-68
2023/05/08 11:03:23;;;;;;;3.87;3.43;;;17.40;99.90;;;;;;5046809;28;20466;-67
2023/05/08 11:05:53;;;;;;;3.70;3.40;;;17.50;99.90;;;;;;5052140;28;20475;-67
2023/05/08 11:08:23;;;;;;;4.60;3.80;;;17.50;99.90;;;;;;5052166;28;20464;-68
2023/05/08 11:11:05;;;;;;;3.50;3.20;;;17.50;99.90;;;;;;5052207;28;20837;-67
2023/05/08 11:13:34;;;;;;;4.27;3.37;;;17.50;99.90;;;;;;5052056;28;20506;-68
2023/05/08 11:16:02;;;;;;;4.23;3.60;;;17.60;99.90;;;;;;5051570;28;20475;-67
2023/05/08 11:18:29;;;;;;;3.63;3.33;;;17.70;99.90;;;;;;5052063;28;20905;-69
2023/05/08 11:20:57;;;;;;;4.07;3.67;;;17.80;99.90;;;;;;5051979;28;20458;-68
2023/05/08 11:23:25;;;;;;;4.40;4.00;;;17.90;99.90;;;;;;5051732;28;20499;-67
2023/05/08 11:26:01;;;;;;;4.00;3.50;;;17.90;99.90;;;;;;5052108;28;20479;-69
2023/05/08 11:28:30;;;;;;;3.43;3.13;;;18.00;99.90;;;;;;5051994;28;20904;-67
2023/05/08 11:31:02;;;;;;;3.30;3.00;;;18.10;99.90;;;;;;5031990;28;20465;-67
2023/05/08 11:33:37;;;;;;;4.50;4.07;;;18.10;99.90;;;;;;5031464;28;20495;-67
2023/05/08 11:36:13;;;;;;;4.10;3.70;;;18.30;99.90;;;;;;5031965;28;20484;-67
2023/05/08 11:38:42;;;;;;;3.63;3.30;;;18.40;99.90;;;;;;5031558;28;20460;-67
2023/05/08 11:41:11;;;;;;;4.10;2.93;;;18.50;99.90;;;;;;5036991;28;20459;-67
2023/05/08 11:44:03;;;;;;;3.70;3.40;;;18.50;99.90;;;;;;5051138;28;20460;-67
2023/05/08 11:46:38;;;;;;;3.53;3.23;;;18.60;99.90;;;;;;5035595;28;20563;-68
2023/05/08 11:49:05;;;;;;;3.70;3.40;;;18.80;99.90;;;;;;5031666;28;20844;-67
2023/05/08 11:51:33;;;;;;;4.23;3.87;;;18.90;99.90;;;;;;5031384;28;20464;-67
2023/05/08 11:54:00;;;;;;;4.00;3.50;;;18.90;99.90;;;;;;5018319;28;20515;-68
2023/05/08 11:56:28;;;;;;;4.43;3.80;;;19.00;99.90;;;;;;5031377;28;20519;-67
2023/05/08 11:59:05;;;;;;;4.10;3.73;;;19.00;99.90;;;;;;5031333;28;20465;-67
2023/05/08 12:01:32;;;;;;;3.90;3.60;;;19.10;99.90;;;;;;5031313;28;20460;-68
2023/05/08 12:04:03;;;;;;;3.97;3.67;;;19.20;99.90;;;;;;5030959;28;20956;-66
2023/05/08 12:06:31;;;;;;;4.80;4.33;;;19.20;99.90;;;;;;5031204;28;20491;-68
2023/05/08 12:08:58;;;;;;;7.03;4.40;;;19.30;99.90;;;;;;5031017;28;20460;-67
2023/05/08 12:11:25;;;;;;;6.07;5.37;;;19.10;99.90;;;;;;5031169;28;20472;-68
2023/05/08 12:13:54;;;;;;;6.10;5.50;;;19.10;99.90;;;;;;5030652;28;20487;-67
2023/05/08 12:16:23;;;;;;;5.83;4.87;;;19.30;99.90;;;;;;5031250;28;20929;-67
2023/05/08 12:18:50;;;;;;;4.83;4.40;;;19.40;99.90;;;;;;5030715;28;20974;-67
2023/05/08 12:21:16;;;;;;;5.20;4.60;;;19.60;99.90;;;;;;5030965;28;20845;-67
2023/05/08 12:23:43;;;;;;;5.43;4.93;;;19.90;99.90;;;;;;5030416;28;20448;-68
2023/05/08 12:26:11;;;;;;;5.03;4.37;;;20.00;99.90;;;;;;5044356;28;20885;-68
2023/05/08 12:28:38;;;;;;;5.37;4.73;;;20.20;99.90;;;;;;5050269;28;20459;-67
2023/05/08 12:31:07;;;;;;;5.70;5.03;;;20.60;99.90;;;;;;5038914;28;20463;-68
2023/05/08 12:33:34;;;;;;;4.80;4.40;;;20.90;99.90;;;;;;5030579;28;20526;-68
2023/05/08 12:36:01;;;;;;;5.87;5.37;;;21.30;99.90;;;;;;5030731;28;20709;-69
2023/05/08 12:38:29;;;;;;;5.07;4.67;;;21.70;99.90;;;;;;5030888;28;20462;-69
2023/05/08 12:40:56;;;;;;;4.73;4.33;;;21.90;99.90;;;;;;5030550;28;20464;-69
2023/05/08 12:43:31;;;;;;;4.63;4.23;;;22.20;99.90;;;;;;5030156;28;20952;-70
2023/05/08 12:45:58;;;;;;;5.07;4.57;;;22.60;99.90;;;;;;5030469;28;20478;-70
2023/05/08 12:48:27;;;;;;;6.37;5.37;;;23.40;99.90;;;;;;5029967;28;20849;-69
2023/05/08 12:50:54;;;;;;;5.17;4.67;;;24.00;99.90;;;;;;5032665;28;20458;-68
2023/05/08 12:53:21;;;;;;;5.70;5.10;;;24.40;99.90;;;;;;5036174;28;20497;-69
2023/05/08 12:55:54;;;;;;;7.30;4.77;;;24.50;99.90;;;;;;5038477;28;20933;-69
2023/05/08 12:58:24;;;;;;;5.60;5.07;;;24.30;99.90;;;;;;5038884;28;20468;-68